sensor_id;sensor_type;location;lat;lon;timestamp;pressure;altitude;pressure_sealevel;temperature;humidity
57056;BME280;42945;51.718;5.324;2023-05-16T00:04:22;101828.22;;;7.65;100.00
57056;BME280;42945;51.718;5.324;2023-05-16T00:10:10;101739.94;;;6.84;100.00
57056;BME280;42945;51.718;5.324;2023-05-16T00:15:58;101772.44;;;6.85;100.00
57056;BME280;42945;51.718;5.324;2023-05-16T00:21:49;101638.31;;;6.08;100.00
57056;BME280;42945;51.718;5.324;2023-05-16T00:27:38;101723.16;;;6.56;100.00
57056;BME280;42945;51.718;5.324;2023-05-16T00:33:25;101752.31;;;6.49;100.00
57056;BME280;42945;51.718;5.324;2023-05-16T00:39:13;101776.69;;;6.58;100.00
57056;BME280;42945;51.718;5.324;2023-05-16T00:45:01;101813.97;;;6.42;100.00
57056;BME280;42945;51.718;5.324;2023-05-16T00:50:49;101558.78;;;4.86;100.00
57056;BME280;42945;51.718;5.324;2023-05-16T00:56:37;101754.38;;;6.01;100.00
57056;BME280;42945;51.718;5.324;2023-05-16T01:02:25;101969.78;;;6.64;100.00
57056;BME280;42945;51.718;5.324;2023-05-16T01:08:15;101778.00;;;6.04;100.00
57056;BME280;42945;51.718;5.324;2023-05-16T01:14:28;101777.66;;;5.79;100.00
57056;BME280;42945;51.718;5.324;2023-05-16T01:26:31;101638.59;;;4.82;100.00
57056;BME280;42945;51.718;5.324;2023-05-16T01:32:18;101798.41;;;5.53;100.00
57056;BME280;42945;51.718;5.324;2023-05-16T01:44:06;101721.94;;;4.77;100.00
57056;BME280;42945;51.718;5.324;2023-05-16T01:50:18;101779.44;;;5.38;100.00
57056;BME280;42945;51.718;5.324;2023-05-16T01:56:15;101738.97;;;5.45;100.00
57056;BME280;42945;51.718;5.324;2023-05-16T02:01:43;101673.34;;;4.53;100.00
57056;BME280;42945;51.718;5.324;2023-05-16T02:07:32;101774.38;;;5.27;100.00
57056;BME280;42945;51.718;5.324;2023-05-16T02:13:20;101768.16;;;4.89;100.00
57056;BME280;42945;51.718;5.324;2023-05-16T02:19:08;101809.09;;;5.01;100.00
57056;BME280;42945;51.718;5.324;2023-05-16T02:24:56;101766.91;;;5.07;100.00
57056;BME280;42945;51.718;5.324;2023-05-16T02:30:43;101681.59;;;4.34;100.00
57056;BME280;42945;51.718;5.324;2023-05-16T02:36:31;101814.41;;;4.98;100.00
57056;BME280;42945;51.718;5.324;2023-05-16T02:42:20;101801.91;;;5.10;100.00
57056;BME280;42945;51.718;5.324;2023-05-16T02:52:09;101821.63;;;4.86;100.00
57056;BME280;42945;51.718;5.324;2023-05-16T02:57:58;101838.03;;;4.99;100.00
57056;BME280;42945;51.718;5.324;2023-05-16T03:03:46;101715.03;;;4.23;100.00
57056;BME280;42945;51.718;5.324;2023-05-16T03:09:33;101817.44;;;4.76;100.00
57056;BME280;42945;51.718;5.324;2023-05-16T03:15:21;101849.75;;;4.81;100.00
57056;BME280;42945;51.718;5.324;2023-05-16T03:21:09;101842.59;;;4.89;100.00
57056;BME280;42945;51.718;5.324;2023-05-16T03:26:56;101850.75;;;4.74;100.00
57056;BME280;42945;51.718;5.324;2023-05-16T03:32:47;101818.22;;;4.81;100.00
57056;BME280;42945;51.718;5.324;2023-05-16T03:38:35;101839.31;;;4.77;100.00
57056;BME280;42945;51.718;5.324;2023-05-16T03:44:22;101777.22;;;4.20;100.00
57056;BME280;42945;51.718;5.324;2023-05-16T03:54:04;101899.56;;;4.89;100.00
57056;BME280;42945;51.718;5.324;2023-05-16T03:59:52;101863.78;;;4.80;100.00
57056;BME280;42945;51.718;5.324;2023-05-16T04:05:40;101863.84;;;4.77;100.00
57056;BME280;42945;51.718;5.324;2023-05-16T04:11:29;101977.59;;;5.38;100.00
57056;BME280;42945;51.718;5.324;2023-05-16T04:17:16;101861.97;;;4.85;100.00
57056;BME280;42945;51.718;5.324;2023-05-16T04:23:04;101862.19;;;4.73;100.00
57056;BME280;42945;51.718;5.324;2023-05-16T04:28:52;101701.94;;;4.22;100.00
57056;BME280;42945;51.718;5.324;2023-05-16T04:34:40;101899.13;;;5.13;100.00
57056;BME280;42945;51.718;5.324;2023-05-16T04:40:31;101925.13;;;5.30;100.00
57056;BME280;42945;51.718;5.324;2023-05-16T04:46:19;101848.81;;;5.32;100.00
57056;BME280;42945;51.718;5.324;2023-05-16T04:52:06;101810.28;;;4.84;100.00
57056;BME280;42945;51.718;5.324;2023-05-16T04:57:58;101899.03;;;5.66;100.00
57056;BME280;42945;51.718;5.324;2023-05-16T05:03:46;101926.84;;;5.80;100.00
57056;BME280;42945;51.718;5.324;2023-05-16T05:09:33;101884.50;;;5.89;100.00
57056;BME280;42945;51.718;5.324;2023-05-16T05:15:20;101902.44;;;6.14;100.00
57056;BME280;42945;51.718;5.324;2023-05-16T05:21:09;101773.69;;;5.61;100.00
57056;BME280;42945;51.718;5.324;2023-05-16T05:26:57;101924.50;;;6.47;100.00
57056;BME280;42945;51.718;5.324;2023-05-16T05:32:45;101875.09;;;6.57;100.00
57056;BME280;42945;51.718;5.324;2023-05-16T05:38:33;101935.56;;;7.00;100.00
57056;BME280;42945;51.718;5.324;2023-05-16T05:44:21;101898.41;;;7.09;100.00
57056;BME280;42945;51.718;5.324;2023-05-16T05:50:09;101775.28;;;6.77;100.00
57056;BME280;42945;51.718;5.324;2023-05-16T05:56:01;101947.34;;;7.54;100.00
57056;BME280;42945;51.718;5.324;2023-05-16T06:01:49;101788.50;;;7.08;100.00
57056;BME280;42945;51.718;5.324;2023-05-16T06:07:40;101850.75;;;8.06;100.00
57056;BME280;42945;51.718;5.324;2023-05-16T06:13:28;101920.28;;;8.08;100.00
57056;BME280;42945;51.718;5.324;2023-05-16T06:19:16;102254.31;;;8.34;100.00
57056;BME280;42945;51.718;5.324;2023-05-16T06:25:05;102015.81;;;9.11;100.00
57056;BME280;42945;51.718;5.324;2023-05-16T06:30:54;101846.72;;;8.51;100.00
57056;BME280;42945;51.718;5.324;2023-05-16T06:36:42;101898.50;;;8.57;100.00
57056;BME280;42945;51.718;5.324;2023-05-16T06:42:30;101895.63;;;8.64;100.00
57056;BME280;42945;51.718;5.324;2023-05-16T06:48:18;101908.56;;;9.00;100.00
57056;BME280;42945;51.718;5.324;2023-05-16T06:57:55;101762.13;;;8.76;100.00
57056;BME280;42945;51.718;5.324;2023-05-16T07:03:42;101876.91;;;8.97;100.00
57056;BME280;42945;51.718;5.324;2023-05-16T07:09:30;101795.22;;;9.37;100.00
57056;BME280;42945;51.718;5.324;2023-05-16T07:15:18;101906.34;;;9.63;100.00
57056;BME280;42945;51.718;5.324;2023-05-16T07:21:06;101814.06;;;9.04;100.00
57056;BME280;42945;51.718;5.324;2023-05-16T07:26:53;101898.78;;;9.76;100.00
57056;BME280;42945;51.718;5.324;2023-05-16T07:32:41;101937.44;;;9.58;100.00
57056;BME280;42945;51.718;5.324;2023-05-16T07:38:30;101942.75;;;10.05;100.00
57056;BME280;42945;51.718;5.324;2023-05-16T07:44:18;101921.63;;;10.94;100.00
57056;BME280;42945;51.718;5.324;2023-05-16T07:50:06;101943.72;;;10.72;100.00
57056;BME280;42945;51.718;5.324;2023-05-16T07:55:55;101808.09;;;9.22;100.00
57056;BME280;42945;51.718;5.324;2023-05-16T08:01:43;101903.34;;;10.20;100.00
57056;BME280;42945;51.718;5.324;2023-05-16T08:07:32;101843.03;;;10.03;100.00
57056;BME280;42945;51.718;5.324;2023-05-16T08:13:21;101887.44;;;10.86;100.00
57056;BME280;42945;51.718;5.324;2023-05-16T08:19:09;101798.84;;;10.68;100.00
57056;BME280;42945;51.718;5.324;2023-05-16T08:24:57;101886.88;;;11.60;100.00
57056;BME280;42945;51.718;5.324;2023-05-16T08:30:46;101860.44;;;11.96;100.00
57056;BME280;42945;51.718;5.324;2023-05-16T08:36:35;101858.78;;;11.54;100.00
57056;BME280;42945;51.718;5.324;2023-05-16T08:42:24;101818.22;;;10.04;100.00
57056;BME280;42945;51.718;5.324;2023-05-16T08:48:14;101907.28;;;11.18;100.00
57056;BME280;42945;51.718;5.324;2023-05-16T08:54:10;101876.53;;;11.73;100.00
57056;BME280;42945;51.718;5.324;2023-05-16T09:00:00;101807.06;;;11.23;100.00
57056;BME280;42945;51.718;5.324;2023-05-16T09:05:57;101866.53;;;11.19;100.00
57056;BME280;42945;51.718;5.324;2023-05-16T09:11:46;101896.31;;;11.67;100.00
57056;BME280;42945;51.718;5.324;2023-05-16T09:17:43;101820.38;;;11.61;100.00
57056;BME280;42945;51.718;5.324;2023-05-16T09:23:32;101970.53;;;12.86;100.00
57056;BME280;42945;51.718;5.324;2023-05-16T09:29:21;101897.53;;;10.98;100.00
57056;BME280;42945;51.718;5.324;2023-05-16T09:35:14;101787.91;;;10.96;100.00
57056;BME280;42945;51.718;5.324;2023-05-16T09:41:03;101876.63;;;12.47;100.00
57056;BME280;42945;51.718;5.324;2023-05-16T09:46:53;101788.91;;;12.09;94.33
57056;BME280;42945;51.718;5.324;2023-05-16T09:52:43;101924.94;;;12.19;100.00
57056;BME280;42945;51.718;5.324;2023-05-16T10:02:19;101899.66;;;13.00;94.02
57056;BME280;42945;51.718;5.324;2023-05-16T10:08:09;101870.09;;;12.35;100.00
57056;BME280;42945;51.718;5.324;2023-05-16T10:13:57;101963.38;;;11.93;100.00
57056;BME280;42945;51.718;5.324;2023-05-16T10:19:46;101920.59;;;13.43;100.00
57056;BME280;42945;51.718;5.324;2023-05-16T10:25:39;101776.78;;;12.21;100.00
57056;BME280;42945;51.718;5.324;2023-05-16T10:31:28;101778.84;;;13.03;98.24
57056;BME280;42945;51.718;5.324;2023-05-16T10:37:16;101810.00;;;13.01;99.14
57056;BME280;42945;51.718;5.324;2023-05-16T10:43:05;101894.13;;;13.05;100.00
57056;BME280;42945;51.718;5.324;2023-05-16T10:48:55;101882.28;;;13.46;100.00
57056;BME280;42945;51.718;5.324;2023-05-16T10:54:49;101867.47;;;13.23;97.08
57056;BME280;42945;51.718;5.324;2023-05-16T11:04:50;101897.78;;;13.37;99.24
57056;BME280;42945;51.718;5.324;2023-05-16T11:10:38;101836.66;;;12.30;100.00
57056;BME280;42945;51.718;5.324;2023-05-16T11:16:26;102002.91;;;13.67;97.81
57056;BME280;42945;51.718;5.324;2023-05-16T11:28:07;101868.50;;;14.50;88.77
57056;BME280;42945;51.718;5.324;2023-05-16T11:33:57;102066.34;;;14.93;83.04
57056;BME280;42945;51.718;5.324;2023-05-16T11:39:45;101827.19;;;13.62;84.60
57056;BME280;42945;51.718;5.324;2023-05-16T11:45:33;101906.41;;;13.76;84.74
57056;BME280;42945;51.718;5.324;2023-05-16T11:51:20;101919.34;;;14.79;79.43
57056;BME280;42945;51.718;5.324;2023-05-16T11:57:08;101800.63;;;12.76;84.39
57056;BME280;42945;51.718;5.324;2023-05-16T12:07:00;101910.91;;;13.91;85.64
57056;BME280;42945;51.718;5.324;2023-05-16T12:12:49;101952.13;;;12.81;92.12
57056;BME280;42945;51.718;5.324;2023-05-16T12:18:40;101925.56;;;12.62;97.32
57056;BME280;42945;51.718;5.324;2023-05-16T12:24:29;101801.66;;;12.02;97.40
57056;BME280;42945;51.718;5.324;2023-05-16T12:30:21;101897.78;;;12.85;99.10
57056;BME280;42945;51.718;5.324;2023-05-16T12:36:12;101835.59;;;11.58;100.00
57056;BME280;42945;51.718;5.324;2023-05-16T12:42:04;101722.78;;;11.08;100.00
57056;BME280;42945;51.718;5.324;2023-05-16T12:47:53;101840.13;;;12.13;100.00
57056;BME280;42945;51.718;5.324;2023-05-16T12:53:46;101913.59;;;12.71;100.00
57056;BME280;42945;51.718;5.324;2023-05-16T12:59:35;101934.84;;;12.53;100.00
57056;BME280;42945;51.718;5.324;2023-05-16T13:09:24;101928.72;;;12.51;100.00
57056;BME280;42945;51.718;5.324;2023-05-16T13:15:13;101932.44;;;12.30;100.00
57056;BME280;42945;51.718;5.324;2023-05-16T13:21:02;101828.59;;;11.95;100.00
57056;BME280;42945;51.718;5.324;2023-05-16T13:26:52;101933.47;;;12.81;100.00
57056;BME280;42945;51.718;5.324;2023-05-16T13:32:41;101946.16;;;12.39;100.00
57056;BME280;42945;51.718;5.324;2023-05-16T13:38:29;101934.59;;;13.12;100.00
57056;BME280;42945;51.718;5.324;2023-05-16T13:44:17;101906.91;;;14.16;96.80
57056;BME280;42945;51.718;5.324;2023-05-16T13:50:06;101908.22;;;13.42;98.57
57056;BME280;42945;51.718;5.324;2023-05-16T13:55:56;101950.00;;;12.70;100.00
57056;BME280;42945;51.718;5.324;2023-05-16T14:01:44;101861.66;;;11.69;100.00
57056;BME280;42945;51.718;5.324;2023-05-16T14:11:26;101920.59;;;13.08;98.79
57056;BME280;42945;51.718;5.324;2023-05-16T14:17:13;101951.47;;;12.58;99.07
57056;BME280;42945;51.718;5.324;2023-05-16T14:23:00;101941.00;;;12.73;97.74
57056;BME280;42945;51.718;5.324;2023-05-16T14:29:13;102018.41;;;13.41;93.49
57056;BME280;42945;51.718;5.324;2023-05-16T14:35:01;101849.84;;;13.03;87.66
57056;BME280;42945;51.718;5.324;2023-05-16T14:40:51;101910.25;;;13.54;90.62
57056;BME280;42945;51.718;5.324;2023-05-16T14:46:38;101902.78;;;13.61;90.04
57056;BME280;42945;51.718;5.324;2023-05-16T14:52:26;101918.13;;;13.40;85.77
57056;BME280;42945;51.718;5.324;2023-05-16T14:58:14;101955.38;;;13.23;86.38
57056;BME280;42945;51.718;5.324;2023-05-16T15:04:02;101806.34;;;12.51;85.65
57056;BME280;42945;51.718;5.324;2023-05-16T15:13:49;101972.91;;;14.28;81.04
57056;BME280;42945;51.718;5.324;2023-05-16T15:19:37;101941.94;;;14.42;70.91
57056;BME280;42945;51.718;5.324;2023-05-16T15:25:24;101943.34;;;15.41;65.53
57056;BME280;42945;51.718;5.324;2023-05-16T15:31:18;101858.06;;;15.80;66.61
57056;BME280;42945;51.718;5.324;2023-05-16T15:37:06;101897.63;;;15.74;63.95
57056;BME280;42945;51.718;5.324;2023-05-16T15:42:53;101934.47;;;15.69;63.75
57056;BME280;42945;51.718;5.324;2023-05-16T15:48:43;101931.44;;;15.31;64.47
57056;BME280;42945;51.718;5.324;2023-05-16T15:54:32;102116.88;;;16.49;62.77
57056;BME280;42945;51.718;5.324;2023-05-16T16:00:20;101959.81;;;15.03;67.38
57056;BME280;42945;51.718;5.324;2023-05-16T16:06:08;101950.19;;;15.01;62.73
57056;BME280;42945;51.718;5.324;2023-05-16T16:15:49;101992.66;;;15.05;70.74
57056;BME280;42945;51.718;5.324;2023-05-16T16:21:37;101963.13;;;13.62;79.22
57056;BME280;42945;51.718;5.324;2023-05-16T16:27:24;101944.47;;;13.10;90.69
57056;BME280;42945;51.718;5.324;2023-05-16T16:33:13;101965.66;;;12.76;96.89
57056;BME280;42945;51.718;5.324;2023-05-16T16:39:00;102028.59;;;12.77;100.00
57056;BME280;42945;51.718;5.324;2023-05-16T16:44:48;102004.09;;;13.07;100.00
57056;BME280;42945;51.718;5.324;2023-05-16T16:50:38;102063.13;;;14.71;83.50
57056;BME280;42945;51.718;5.324;2023-05-16T16:56:26;101863.94;;;12.52;100.00
57056;BME280;42945;51.718;5.324;2023-05-16T17:02:15;102015.19;;;12.98;100.00
57056;BME280;42945;51.718;5.324;2023-05-16T17:08:04;101970.59;;;12.48;100.00
57056;BME280;42945;51.718;5.324;2023-05-16T17:13:52;101992.44;;;12.16;100.00
57056;BME280;42945;51.718;5.324;2023-05-16T17:19:46;102021.31;;;12.05;100.00
57056;BME280;42945;51.718;5.324;2023-05-16T17:25:35;102000.94;;;12.44;100.00
57056;BME280;42945;51.718;5.324;2023-05-16T17:31:23;102040.97;;;12.40;100.00
57056;BME280;42945;51.718;5.324;2023-05-16T17:37:24;102014.38;;;12.78;100.00
57056;BME280;42945;51.718;5.324;2023-05-16T17:43:12;102071.41;;;12.54;100.00
57056;BME280;42945;51.718;5.324;2023-05-16T17:49:00;102017.91;;;15.60;100.00
57056;BME280;42945;51.718;5.324;2023-05-16T17:54:48;101935.81;;;14.08;100.00
57056;BME280;42945;51.718;5.324;2023-05-16T18:00:36;102039.44;;;13.11;100.00
57056;BME280;42945;51.718;5.324;2023-05-16T18:06:25;101913.41;;;15.20;100.00
57056;BME280;42945;51.718;5.324;2023-05-16T18:12:13;101998.22;;;15.16;100.00
57056;BME280;42945;51.718;5.324;2023-05-16T18:18:07;102308.75;;;16.04;100.00
57056;BME280;42945;51.718;5.324;2023-05-16T18:23:56;102061.88;;;12.10;100.00
57056;BME280;42945;51.718;5.324;2023-05-16T18:29:45;102042.81;;;12.00;100.00
57056;BME280;42945;51.718;5.324;2023-05-16T18:35:34;101955.19;;;10.95;100.00
57056;BME280;42945;51.718;5.324;2023-05-16T18:41:22;102099.28;;;11.42;100.00
57056;BME280;42945;51.718;5.324;2023-05-16T18:47:10;102001.69;;;11.05;100.00
57056;BME280;42945;51.718;5.324;2023-05-16T18:52:58;102063.09;;;10.96;100.00
57056;BME280;42945;51.718;5.324;2023-05-16T18:58:46;102086.25;;;10.69;100.00
57056;BME280;42945;51.718;5.324;2023-05-16T19:04:34;102130.13;;;10.29;100.00
57056;BME280;42945;51.718;5.324;2023-05-16T19:10:22;102317.25;;;10.89;100.00
57056;BME280;42945;51.718;5.324;2023-05-16T19:20:06;102144.63;;;9.66;100.00
57056;BME280;42945;51.718;5.324;2023-05-16T19:25:55;102090.22;;;9.56;100.00
57056;BME280;42945;51.718;5.324;2023-05-16T19:31:43;102145.25;;;9.48;100.00
57056;BME280;42945;51.718;5.324;2023-05-16T19:37:31;102143.19;;;9.28;100.00
57056;BME280;42945;51.718;5.324;2023-05-16T19:43:18;102034.38;;;8.53;100.00
57056;BME280;42945;51.718;5.324;2023-05-16T19:49:08;102214.13;;;8.87;100.00
57056;BME280;42945;51.718;5.324;2023-05-16T19:54:57;102128.88;;;8.77;100.00
57056;BME280;42945;51.718;5.324;2023-05-16T20:00:44;101959.16;;;7.39;100.00
57056;BME280;42945;51.718;5.324;2023-05-16T20:06:31;102084.31;;;7.99;100.00
57056;BME280;42945;51.718;5.324;2023-05-16T20:12:19;102154.41;;;8.47;100.00
57056;BME280;42945;51.718;5.324;2023-05-16T20:18:07;102163.59;;;8.32;100.00
57056;BME280;42945;51.718;5.324;2023-05-16T20:23:55;102517.06;;;8.25;100.00
57056;BME280;42945;51.718;5.324;2023-05-16T20:29:44;102087.31;;;7.51;100.00
57056;BME280;42945;51.718;5.324;2023-05-16T20:35:33;102196.13;;;8.01;100.00
57056;BME280;42945;51.718;5.324;2023-05-16T20:41:20;102221.97;;;7.87;100.00
57056;BME280;42945;51.718;5.324;2023-05-16T20:47:09;102187.06;;;7.76;100.00
57056;BME280;42945;51.718;5.324;2023-05-16T20:52:57;102173.44;;;7.57;100.00
57056;BME280;42945;51.718;5.324;2023-05-16T20:58:44;102137.72;;;7.01;100.00
57056;BME280;42945;51.718;5.324;2023-05-16T21:04:32;102251.00;;;7.51;100.00
57056;BME280;42945;51.718;5.324;2023-05-16T21:10:20;102146.25;;;6.74;100.00
57056;BME280;42945;51.718;5.324;2023-05-16T21:16:08;102223.19;;;7.35;100.00
57056;BME280;42945;51.718;5.324;2023-05-16T21:21:55;102167.44;;;6.69;100.00
57056;BME280;42945;51.718;5.324;2023-05-16T21:27:42;102261.25;;;7.24;100.00
57056;BME280;42945;51.718;5.324;2023-05-16T21:33:30;102233.34;;;7.13;100.00
57056;BME280;42945;51.718;5.324;2023-05-16T21:39:17;102275.56;;;7.11;100.00
57056;BME280;42945;51.718;5.324;2023-05-16T21:45:06;102239.44;;;7.15;100.00
57056;BME280;42945;51.718;5.324;2023-05-16T21:50:59;102125.03;;;6.36;100.00
57056;BME280;42945;51.718;5.324;2023-05-16T21:56:46;102249.72;;;6.86;100.00
57056;BME280;42945;51.718;5.324;2023-05-16T22:02:36;102309.38;;;6.92;100.00
57056;BME280;42945;51.718;5.324;2023-05-16T22:08:23;102288.34;;;6.87;100.00
57056;BME280;42945;51.718;5.324;2023-05-16T22:14:12;102267.34;;;6.84;100.00
57056;BME280;42945;51.718;5.324;2023-05-16T22:23:46;102406.78;;;7.48;100.00
57056;BME280;42945;51.718;5.324;2023-05-16T22:29:34;102285.84;;;6.80;100.00
57056;BME280;42945;51.718;5.324;2023-05-16T22:35:24;102285.22;;;6.67;100.00
57056;BME280;42945;51.718;5.324;2023-05-16T22:41:17;102281.53;;;6.77;100.00
57056;BME280;42945;51.718;5.324;2023-05-16T22:47:05;102289.56;;;6.69;100.00
57056;BME280;42945;51.718;5.324;2023-05-16T22:52:54;102299.44;;;6.57;100.00
57056;BME280;42945;51.718;5.324;2023-05-16T22:58:42;102300.84;;;6.76;100.00
57056;BME280;42945;51.718;5.324;2023-05-16T23:04:30;102320.38;;;6.66;100.00
57056;BME280;42945;51.718;5.324;2023-05-16T23:10:19;102189.91;;;5.89;100.00
57056;BME280;42945;51.718;5.324;2023-05-16T23:16:08;102315.25;;;6.58;100.00
57056;BME280;42945;51.718;5.324;2023-05-16T23:25:31;102328.00;;;6.30;100.00
57056;BME280;42945;51.718;5.324;2023-05-16T23:31:18;102264.50;;;6.45;100.00
57056;BME280;42945;51.718;5.324;2023-05-16T23:37:05;102210.22;;;5.81;100.00
57056;BME280;42945;51.718;5.324;2023-05-16T23:42:53;102335.75;;;6.41;100.00
57056;BME280;42945;51.718;5.324;2023-05-16T23:48:40;102333.22;;;6.35;100.00
57056;BME280;42945;51.718;5.324;2023-05-16T23:54:27;102205.19;;;5.67;100.00
